Terminal Aerodrome Forecast
Issued by NWS

Home | Current Version | Previous Version | Text Only | Print | Product List | Glossary On
Versions: 1 2 3 4 5 6 7 8 9 10 11 12 13 14 15 16 17 18 19 20 21 22 23 24 25 26
000
FTUS46 KSEW 182100 AAB
TAFOLM
TAF AMD
KOLM 182105Z 1821/1918 24003KT P6SM -RA FEW003 OVC028
     FM190000 17006KT 5SM -RA BR OVC025
     FM190400 17007KT 4SM -RA BR SCT008 OVC018
     FM190600 17007KT 3SM -RA BR SCT008 OVC015 WS020/20045KT
     FM190800 20010G18KT P6SM -SHRA SCT015 BKN025 BKN035
     FM191200 20006KT P6SM VCSH SCT025 BKN035=

USA.gov is the U.S. government's official web portal to all federal, state and local government web resources and services.